sensor_id;sensor_type;location;lat;lon;timestamp;P1;durP1;ratioP1;P2;durP2;ratioP2
54307;SDS011;40208;39.778;2.710;2023-06-26T00:02:28;8.43;;;4.07;;
54307;SDS011;40208;39.778;2.710;2023-06-26T00:05:16;6.53;;;4.40;;
54307;SDS011;40208;39.778;2.710;2023-06-26T00:08:01;7.90;;;4.25;;
54307;SDS011;40208;39.778;2.710;2023-06-26T00:10:46;7.72;;;4.78;;
54307;SDS011;40208;39.778;2.710;2023-06-26T00:13:31;20.70;;;5.50;;
54307;SDS011;40208;39.778;2.710;2023-06-26T00:16:16;12.52;;;4.65;;
54307;SDS011;40208;39.778;2.710;2023-06-26T00:19:01;7.57;;;4.38;;
54307;SDS011;40208;39.778;2.710;2023-06-26T00:21:46;6.22;;;4.97;;
54307;SDS011;40208;39.778;2.710;2023-06-26T00:24:32;10.13;;;5.07;;
54307;SDS011;40208;39.778;2.710;2023-06-26T00:27:16;5.88;;;4.45;;
54307;SDS011;40208;39.778;2.710;2023-06-26T00:30:01;8.65;;;4.78;;
54307;SDS011;40208;39.778;2.710;2023-06-26T00:32:47;8.52;;;4.63;;
54307;SDS011;40208;39.778;2.710;2023-06-26T00:35:32;8.27;;;4.70;;
54307;SDS011;40208;39.778;2.710;2023-06-26T00:38:16;9.00;;;4.88;;
54307;SDS011;40208;39.778;2.710;2023-06-26T00:41:01;7.45;;;4.90;;
54307;SDS011;40208;39.778;2.710;2023-06-26T00:43:46;5.80;;;4.15;;
54307;SDS011;40208;39.778;2.710;2023-06-26T00:46:31;10.00;;;4.32;;
54307;SDS011;40208;39.778;2.710;2023-06-26T00:49:17;7.38;;;4.70;;
54307;SDS011;40208;39.778;2.710;2023-06-26T00:52:01;7.32;;;4.40;;
54307;SDS011;40208;39.778;2.710;2023-06-26T00:54:47;7.00;;;4.45;;
54307;SDS011;40208;39.778;2.710;2023-06-26T00:57:32;6.03;;;4.78;;
54307;SDS011;40208;39.778;2.710;2023-06-26T01:00:18;6.80;;;4.57;;
54307;SDS011;40208;39.778;2.710;2023-06-26T01:03:02;7.60;;;4.28;;
54307;SDS011;40208;39.778;2.710;2023-06-26T01:05:48;7.13;;;4.68;;
54307;SDS011;40208;39.778;2.710;2023-06-26T01:08:34;7.85;;;3.65;;
54307;SDS011;40208;39.778;2.710;2023-06-26T01:11:19;6.25;;;4.20;;
54307;SDS011;40208;39.778;2.710;2023-06-26T01:14:04;6.15;;;4.22;;
54307;SDS011;40208;39.778;2.710;2023-06-26T01:16:49;7.53;;;4.13;;
54307;SDS011;40208;39.778;2.710;2023-06-26T01:19:36;7.40;;;5.05;;
54307;SDS011;40208;39.778;2.710;2023-06-26T01:25:37;14.30;;;5.05;;
54307;SDS011;40208;39.778;2.710;2023-06-26T01:28:34;7.88;;;4.75;;
54307;SDS011;40208;39.778;2.710;2023-06-26T01:31:23;8.60;;;4.28;;
54307;SDS011;40208;39.778;2.710;2023-06-26T01:34:08;6.63;;;4.68;;
54307;SDS011;40208;39.778;2.710;2023-06-26T01:36:54;6.50;;;4.47;;
54307;SDS011;40208;39.778;2.710;2023-06-26T01:39:38;8.13;;;4.78;;
54307;SDS011;40208;39.778;2.710;2023-06-26T01:42:23;6.32;;;4.25;;
54307;SDS011;40208;39.778;2.710;2023-06-26T01:45:16;11.70;;;4.60;;
54307;SDS011;40208;39.778;2.710;2023-06-26T01:48:07;5.72;;;4.32;;
54307;SDS011;40208;39.778;2.710;2023-06-26T01:50:56;7.65;;;4.15;;
54307;SDS011;40208;39.778;2.710;2023-06-26T01:53:45;7.00;;;4.10;;
54307;SDS011;40208;39.778;2.710;2023-06-26T01:56:37;5.40;;;4.18;;
54307;SDS011;40208;39.778;2.710;2023-06-26T01:59:23;6.38;;;4.38;;
54307;SDS011;40208;39.778;2.710;2023-06-26T02:02:12;4.57;;;3.70;;
54307;SDS011;40208;39.778;2.710;2023-06-26T02:04:57;7.07;;;4.60;;
54307;SDS011;40208;39.778;2.710;2023-06-26T02:07:42;5.25;;;3.95;;
54307;SDS011;40208;39.778;2.710;2023-06-26T02:10:27;6.13;;;3.97;;
54307;SDS011;40208;39.778;2.710;2023-06-26T02:13:12;10.75;;;4.55;;
54307;SDS011;40208;39.778;2.710;2023-06-26T02:15:57;8.88;;;4.20;;
54307;SDS011;40208;39.778;2.710;2023-06-26T02:18:42;6.38;;;4.28;;
54307;SDS011;40208;39.778;2.710;2023-06-26T02:21:27;6.10;;;4.13;;
54307;SDS011;40208;39.778;2.710;2023-06-26T02:24:12;9.35;;;4.47;;
54307;SDS011;40208;39.778;2.710;2023-06-26T02:26:56;6.72;;;4.30;;
54307;SDS011;40208;39.778;2.710;2023-06-26T02:29:41;7.60;;;4.03;;
54307;SDS011;40208;39.778;2.710;2023-06-26T02:32:26;6.40;;;4.43;;
54307;SDS011;40208;39.778;2.710;2023-06-26T02:35:11;5.78;;;4.32;;
54307;SDS011;40208;39.778;2.710;2023-06-26T02:37:56;7.55;;;4.40;;
54307;SDS011;40208;39.778;2.710;2023-06-26T02:40:41;7.65;;;4.65;;
54307;SDS011;40208;39.778;2.710;2023-06-26T02:43:25;7.07;;;4.43;;
54307;SDS011;40208;39.778;2.710;2023-06-26T02:46:10;7.25;;;4.35;;
54307;SDS011;40208;39.778;2.710;2023-06-26T02:48:55;6.50;;;4.55;;
54307;SDS011;40208;39.778;2.710;2023-06-26T02:51:40;5.90;;;4.75;;
54307;SDS011;40208;39.778;2.710;2023-06-26T02:54:25;6.00;;;4.85;;
54307;SDS011;40208;39.778;2.710;2023-06-26T02:57:10;10.07;;;5.18;;
54307;SDS011;40208;39.778;2.710;2023-06-26T02:59:55;6.53;;;4.57;;
54307;SDS011;40208;39.778;2.710;2023-06-26T03:02:40;5.70;;;4.45;;
54307;SDS011;40208;39.778;2.710;2023-06-26T03:05:24;16.42;;;5.35;;
54307;SDS011;40208;39.778;2.710;2023-06-26T03:08:09;9.55;;;4.25;;
54307;SDS011;40208;39.778;2.710;2023-06-26T03:10:54;6.95;;;4.78;;
54307;SDS011;40208;39.778;2.710;2023-06-26T03:13:39;7.95;;;4.32;;
54307;SDS011;40208;39.778;2.710;2023-06-26T03:16:24;8.88;;;4.85;;
54307;SDS011;40208;39.778;2.710;2023-06-26T03:19:09;5.95;;;4.32;;
54307;SDS011;40208;39.778;2.710;2023-06-26T03:21:53;7.50;;;4.82;;
54307;SDS011;40208;39.778;2.710;2023-06-26T03:24:39;6.95;;;4.10;;
54307;SDS011;40208;39.778;2.710;2023-06-26T03:27:24;9.20;;;4.55;;
54307;SDS011;40208;39.778;2.710;2023-06-26T03:30:09;5.97;;;4.13;;
54307;SDS011;40208;39.778;2.710;2023-06-26T03:32:54;5.80;;;4.25;;
54307;SDS011;40208;39.778;2.710;2023-06-26T03:35:39;5.75;;;4.15;;
54307;SDS011;40208;39.778;2.710;2023-06-26T03:38:24;6.68;;;4.63;;
54307;SDS011;40208;39.778;2.710;2023-06-26T03:41:10;6.40;;;4.03;;
54307;SDS011;40208;39.778;2.710;2023-06-26T03:43:55;7.40;;;4.10;;
54307;SDS011;40208;39.778;2.710;2023-06-26T03:46:40;7.07;;;4.40;;
54307;SDS011;40208;39.778;2.710;2023-06-26T03:49:25;4.78;;;4.03;;
54307;SDS011;40208;39.778;2.710;2023-06-26T03:52:10;8.35;;;4.75;;
54307;SDS011;40208;39.778;2.710;2023-06-26T03:54:54;8.48;;;4.30;;
54307;SDS011;40208;39.778;2.710;2023-06-26T03:57:39;5.88;;;4.32;;
54307;SDS011;40208;39.778;2.710;2023-06-26T04:00:24;6.38;;;3.70;;
54307;SDS011;40208;39.778;2.710;2023-06-26T04:03:09;6.25;;;4.30;;
54307;SDS011;40208;39.778;2.710;2023-06-26T04:05:55;7.28;;;4.72;;
54307;SDS011;40208;39.778;2.710;2023-06-26T04:08:40;8.15;;;4.30;;
54307;SDS011;40208;39.778;2.710;2023-06-26T04:11:25;12.98;;;4.78;;
54307;SDS011;40208;39.778;2.710;2023-06-26T04:14:10;6.57;;;4.50;;
54307;SDS011;40208;39.778;2.710;2023-06-26T04:16:55;15.70;;;4.60;;
54307;SDS011;40208;39.778;2.710;2023-06-26T04:19:39;10.20;;;4.38;;
54307;SDS011;40208;39.778;2.710;2023-06-26T04:22:24;9.68;;;4.85;;
54307;SDS011;40208;39.778;2.710;2023-06-26T04:25:10;11.35;;;5.10;;
54307;SDS011;40208;39.778;2.710;2023-06-26T04:27:56;11.05;;;4.75;;
54307;SDS011;40208;39.778;2.710;2023-06-26T04:30:41;11.10;;;5.40;;
54307;SDS011;40208;39.778;2.710;2023-06-26T04:33:26;12.48;;;5.00;;
54307;SDS011;40208;39.778;2.710;2023-06-26T04:36:10;8.02;;;5.13;;
54307;SDS011;40208;39.778;2.710;2023-06-26T04:38:55;8.43;;;4.53;;
54307;SDS011;40208;39.778;2.710;2023-06-26T04:41:40;9.52;;;4.88;;
54307;SDS011;40208;39.778;2.710;2023-06-26T04:44:25;10.85;;;5.20;;
54307;SDS011;40208;39.778;2.710;2023-06-26T04:47:10;9.05;;;5.13;;
54307;SDS011;40208;39.778;2.710;2023-06-26T04:49:55;10.20;;;4.70;;
54307;SDS011;40208;39.778;2.710;2023-06-26T04:52:39;6.75;;;4.45;;
54307;SDS011;40208;39.778;2.710;2023-06-26T04:55:24;7.50;;;5.00;;
54307;SDS011;40208;39.778;2.710;2023-06-26T04:58:10;6.53;;;4.97;;
54307;SDS011;40208;39.778;2.710;2023-06-26T05:00:55;15.75;;;5.70;;
54307;SDS011;40208;39.778;2.710;2023-06-26T05:03:40;9.60;;;4.97;;
54307;SDS011;40208;39.778;2.710;2023-06-26T05:06:25;12.38;;;5.63;;
54307;SDS011;40208;39.778;2.710;2023-06-26T05:09:09;9.05;;;5.13;;
54307;SDS011;40208;39.778;2.710;2023-06-26T05:11:55;13.50;;;5.85;;
54307;SDS011;40208;39.778;2.710;2023-06-26T05:14:40;12.25;;;5.43;;
54307;SDS011;40208;39.778;2.710;2023-06-26T05:17:25;15.02;;;5.30;;
54307;SDS011;40208;39.778;2.710;2023-06-26T05:20:10;10.98;;;5.57;;
54307;SDS011;40208;39.778;2.710;2023-06-26T05:22:55;11.48;;;5.60;;
54307;SDS011;40208;39.778;2.710;2023-06-26T05:25:39;10.73;;;5.55;;
54307;SDS011;40208;39.778;2.710;2023-06-26T05:28:25;10.77;;;5.57;;
54307;SDS011;40208;39.778;2.710;2023-06-26T05:31:11;10.98;;;5.75;;
54307;SDS011;40208;39.778;2.710;2023-06-26T05:33:56;11.57;;;6.20;;
54307;SDS011;40208;39.778;2.710;2023-06-26T05:36:44;15.75;;;6.15;;
54307;SDS011;40208;39.778;2.710;2023-06-26T05:39:30;12.85;;;5.20;;
54307;SDS011;40208;39.778;2.710;2023-06-26T05:42:15;10.75;;;5.53;;
54307;SDS011;40208;39.778;2.710;2023-06-26T05:45:00;11.43;;;6.03;;
54307;SDS011;40208;39.778;2.710;2023-06-26T05:47:45;14.88;;;6.03;;
54307;SDS011;40208;39.778;2.710;2023-06-26T05:50:30;12.43;;;6.47;;
54307;SDS011;40208;39.778;2.710;2023-06-26T05:53:15;9.55;;;5.80;;
54307;SDS011;40208;39.778;2.710;2023-06-26T05:56:00;14.55;;;5.97;;
54307;SDS011;40208;39.778;2.710;2023-06-26T05:58:45;8.40;;;5.30;;
54307;SDS011;40208;39.778;2.710;2023-06-26T06:01:31;13.68;;;8.27;;
54307;SDS011;40208;39.778;2.710;2023-06-26T06:04:17;13.32;;;6.40;;
54307;SDS011;40208;39.778;2.710;2023-06-26T06:07:02;12.18;;;6.35;;
54307;SDS011;40208;39.778;2.710;2023-06-26T06:09:47;10.35;;;6.38;;
54307;SDS011;40208;39.778;2.710;2023-06-26T06:12:32;9.63;;;5.93;;
54307;SDS011;40208;39.778;2.710;2023-06-26T06:15:17;11.10;;;5.38;;
54307;SDS011;40208;39.778;2.710;2023-06-26T06:18:02;9.20;;;5.57;;
54307;SDS011;40208;39.778;2.710;2023-06-26T06:20:47;11.68;;;6.03;;
54307;SDS011;40208;39.778;2.710;2023-06-26T06:23:32;11.52;;;6.25;;
54307;SDS011;40208;39.778;2.710;2023-06-26T06:26:17;15.73;;;6.20;;
54307;SDS011;40208;39.778;2.710;2023-06-26T06:29:02;10.88;;;5.88;;
54307;SDS011;40208;39.778;2.710;2023-06-26T06:31:47;12.13;;;5.55;;
54307;SDS011;40208;39.778;2.710;2023-06-26T06:34:32;12.20;;;5.53;;
54307;SDS011;40208;39.778;2.710;2023-06-26T06:37:17;11.77;;;5.70;;
54307;SDS011;40208;39.778;2.710;2023-06-26T06:40:02;10.38;;;6.00;;
54307;SDS011;40208;39.778;2.710;2023-06-26T06:42:48;16.27;;;6.25;;
54307;SDS011;40208;39.778;2.710;2023-06-26T06:45:33;9.30;;;5.28;;
54307;SDS011;40208;39.778;2.710;2023-06-26T06:48:18;15.38;;;6.10;;
54307;SDS011;40208;39.778;2.710;2023-06-26T06:51:03;8.38;;;6.25;;
54307;SDS011;40208;39.778;2.710;2023-06-26T06:53:48;12.10;;;6.40;;
54307;SDS011;40208;39.778;2.710;2023-06-26T06:56:33;13.07;;;6.82;;
54307;SDS011;40208;39.778;2.710;2023-06-26T06:59:18;11.68;;;7.28;;
54307;SDS011;40208;39.778;2.710;2023-06-26T07:02:03;9.85;;;7.60;;
54307;SDS011;40208;39.778;2.710;2023-06-26T07:04:48;12.27;;;7.30;;
54307;SDS011;40208;39.778;2.710;2023-06-26T07:07:33;14.48;;;7.85;;
54307;SDS011;40208;39.778;2.710;2023-06-26T07:10:18;14.40;;;8.93;;
54307;SDS011;40208;39.778;2.710;2023-06-26T07:13:03;10.75;;;6.90;;
54307;SDS011;40208;39.778;2.710;2023-06-26T07:15:48;11.32;;;6.97;;
54307;SDS011;40208;39.778;2.710;2023-06-26T07:18:33;9.23;;;7.10;;
54307;SDS011;40208;39.778;2.710;2023-06-26T07:21:17;13.52;;;7.20;;
54307;SDS011;40208;39.778;2.710;2023-06-26T07:24:02;15.00;;;7.90;;
54307;SDS011;40208;39.778;2.710;2023-06-26T07:26:47;11.30;;;6.78;;
54307;SDS011;40208;39.778;2.710;2023-06-26T07:29:32;14.13;;;7.63;;
54307;SDS011;40208;39.778;2.710;2023-06-26T07:32:17;13.02;;;7.88;;
54307;SDS011;40208;39.778;2.710;2023-06-26T07:35:02;13.50;;;7.85;;
54307;SDS011;40208;39.778;2.710;2023-06-26T07:37:48;12.98;;;7.97;;
54307;SDS011;40208;39.778;2.710;2023-06-26T07:40:32;9.20;;;6.82;;
54307;SDS011;40208;39.778;2.710;2023-06-26T07:43:17;10.60;;;6.85;;
54307;SDS011;40208;39.778;2.710;2023-06-26T07:46:02;8.20;;;5.38;;
54307;SDS011;40208;39.778;2.710;2023-06-26T07:48:47;7.20;;;5.25;;
54307;SDS011;40208;39.778;2.710;2023-06-26T07:51:32;8.93;;;4.97;;
54307;SDS011;40208;39.778;2.710;2023-06-26T07:54:17;10.48;;;5.10;;
54307;SDS011;40208;39.778;2.710;2023-06-26T07:57:03;9.40;;;4.85;;
54307;SDS011;40208;39.778;2.710;2023-06-26T07:59:51;6.75;;;5.00;;
54307;SDS011;40208;39.778;2.710;2023-06-26T08:02:36;7.25;;;5.28;;
54307;SDS011;40208;39.778;2.710;2023-06-26T08:05:21;10.65;;;5.30;;
54307;SDS011;40208;39.778;2.710;2023-06-26T08:08:05;8.57;;;5.65;;
54307;SDS011;40208;39.778;2.710;2023-06-26T08:10:50;7.38;;;5.45;;
54307;SDS011;40208;39.778;2.710;2023-06-26T08:13:35;7.68;;;5.25;;
54307;SDS011;40208;39.778;2.710;2023-06-26T08:16:20;7.88;;;5.25;;
54307;SDS011;40208;39.778;2.710;2023-06-26T08:19:05;8.52;;;4.70;;
54307;SDS011;40208;39.778;2.710;2023-06-26T08:21:50;6.35;;;4.40;;
54307;SDS011;40208;39.778;2.710;2023-06-26T08:24:35;8.10;;;4.15;;
54307;SDS011;40208;39.778;2.710;2023-06-26T08:27:21;4.82;;;3.63;;
54307;SDS011;40208;39.778;2.710;2023-06-26T08:30:06;8.20;;;4.40;;
54307;SDS011;40208;39.778;2.710;2023-06-26T08:32:51;6.88;;;3.83;;
54307;SDS011;40208;39.778;2.710;2023-06-26T08:35:35;7.82;;;4.05;;
54307;SDS011;40208;39.778;2.710;2023-06-26T08:38:20;7.30;;;4.40;;
54307;SDS011;40208;39.778;2.710;2023-06-26T08:41:05;6.80;;;3.53;;
54307;SDS011;40208;39.778;2.710;2023-06-26T08:43:53;9.38;;;3.90;;
54307;SDS011;40208;39.778;2.710;2023-06-26T08:46:38;6.75;;;4.07;;
54307;SDS011;40208;39.778;2.710;2023-06-26T08:52:15;4.50;;;3.30;;
54307;SDS011;40208;39.778;2.710;2023-06-26T08:55:06;5.63;;;3.70;;
54307;SDS011;40208;39.778;2.710;2023-06-26T08:57:55;5.45;;;3.67;;
54307;SDS011;40208;39.778;2.710;2023-06-26T09:00:40;6.75;;;3.58;;
54307;SDS011;40208;39.778;2.710;2023-06-26T09:03:25;5.20;;;3.85;;
54307;SDS011;40208;39.778;2.710;2023-06-26T09:06:10;5.43;;;3.78;;
54307;SDS011;40208;39.778;2.710;2023-06-26T09:08:55;10.60;;;3.58;;
54307;SDS011;40208;39.778;2.710;2023-06-26T09:11:40;5.68;;;3.65;;
54307;SDS011;40208;39.778;2.710;2023-06-26T09:14:26;6.72;;;3.22;;
54307;SDS011;40208;39.778;2.710;2023-06-26T09:17:12;5.82;;;3.53;;
54307;SDS011;40208;39.778;2.710;2023-06-26T09:19:57;7.57;;;3.67;;
54307;SDS011;40208;39.778;2.710;2023-06-26T09:22:43;6.55;;;3.30;;
54307;SDS011;40208;39.778;2.710;2023-06-26T09:25:31;6.63;;;3.27;;
54307;SDS011;40208;39.778;2.710;2023-06-26T09:28:16;5.32;;;3.40;;
54307;SDS011;40208;39.778;2.710;2023-06-26T09:31:01;5.38;;;3.70;;
54307;SDS011;40208;39.778;2.710;2023-06-26T09:33:50;14.40;;;3.40;;
54307;SDS011;40208;39.778;2.710;2023-06-26T09:36:42;3.60;;;2.85;;
54307;SDS011;40208;39.778;2.710;2023-06-26T09:39:31;4.80;;;3.65;;
54307;SDS011;40208;39.778;2.710;2023-06-26T09:42:17;4.43;;;2.97;;
54307;SDS011;40208;39.778;2.710;2023-06-26T09:45:01;4.78;;;3.15;;
54307;SDS011;40208;39.778;2.710;2023-06-26T09:47:47;3.83;;;3.28;;
54307;SDS011;40208;39.778;2.710;2023-06-26T09:50:35;3.97;;;3.08;;
54307;SDS011;40208;39.778;2.710;2023-06-26T09:53:20;5.47;;;3.07;;
54307;SDS011;40208;39.778;2.710;2023-06-26T09:56:06;6.82;;;3.25;;
54307;SDS011;40208;39.778;2.710;2023-06-26T09:58:51;5.80;;;2.90;;
54307;SDS011;40208;39.778;2.710;2023-06-26T10:01:39;6.65;;;3.65;;
54307;SDS011;40208;39.778;2.710;2023-06-26T10:04:25;8.10;;;3.78;;
54307;SDS011;40208;39.778;2.710;2023-06-26T10:07:11;8.13;;;3.50;;
54307;SDS011;40208;39.778;2.710;2023-06-26T10:09:57;5.75;;;3.40;;
54307;SDS011;40208;39.778;2.710;2023-06-26T10:12:45;5.40;;;3.13;;
54307;SDS011;40208;39.778;2.710;2023-06-26T10:18:19;4.00;;;3.30;;
54307;SDS011;40208;39.778;2.710;2023-06-26T10:21:08;4.45;;;3.03;;
54307;SDS011;40208;39.778;2.710;2023-06-26T10:23:56;4.75;;;3.58;;
54307;SDS011;40208;39.778;2.710;2023-06-26T10:26:44;3.60;;;3.13;;
54307;SDS011;40208;39.778;2.710;2023-06-26T10:29:30;4.18;;;3.47;;
54307;SDS011;40208;39.778;2.710;2023-06-26T10:32:18;8.43;;;3.40;;
54307;SDS011;40208;39.778;2.710;2023-06-26T10:35:05;7.20;;;3.15;;
54307;SDS011;40208;39.778;2.710;2023-06-26T10:37:51;4.90;;;3.00;;
54307;SDS011;40208;39.778;2.710;2023-06-26T10:40:42;4.80;;;3.28;;
54307;SDS011;40208;39.778;2.710;2023-06-26T10:43:32;7.50;;;3.50;;
54307;SDS011;40208;39.778;2.710;2023-06-26T10:46:18;4.43;;;3.30;;
54307;SDS011;40208;39.778;2.710;2023-06-26T10:49:04;6.30;;;3.65;;
54307;SDS011;40208;39.778;2.710;2023-06-26T10:51:49;7.00;;;3.35;;
54307;SDS011;40208;39.778;2.710;2023-06-26T10:54:35;6.38;;;3.42;;
54307;SDS011;40208;39.778;2.710;2023-06-26T10:57:25;5.25;;;3.53;;
54307;SDS011;40208;39.778;2.710;2023-06-26T11:00:10;4.40;;;3.25;;
54307;SDS011;40208;39.778;2.710;2023-06-26T11:02:58;7.47;;;3.25;;
54307;SDS011;40208;39.778;2.710;2023-06-26T11:05:45;5.55;;;3.08;;
54307;SDS011;40208;39.778;2.710;2023-06-26T11:08:43;6.55;;;3.03;;
54307;SDS011;40208;39.778;2.710;2023-06-26T11:14:36;5.68;;;3.35;;
54307;SDS011;40208;39.778;2.710;2023-06-26T11:17:21;4.65;;;3.25;;
54307;SDS011;40208;39.778;2.710;2023-06-26T11:20:09;6.72;;;3.53;;
54307;SDS011;40208;39.778;2.710;2023-06-26T11:22:55;5.95;;;3.22;;
54307;SDS011;40208;39.778;2.710;2023-06-26T11:25:41;6.97;;;3.92;;
54307;SDS011;40208;39.778;2.710;2023-06-26T11:28:27;4.95;;;3.67;;
54307;SDS011;40208;39.778;2.710;2023-06-26T11:31:23;5.65;;;3.30;;
54307;SDS011;40208;39.778;2.710;2023-06-26T11:34:11;4.75;;;3.42;;
54307;SDS011;40208;39.778;2.710;2023-06-26T11:36:57;4.50;;;3.17;;
54307;SDS011;40208;39.778;2.710;2023-06-26T11:39:42;4.35;;;3.20;;
54307;SDS011;40208;39.778;2.710;2023-06-26T11:42:26;5.72;;;3.97;;
54307;SDS011;40208;39.778;2.710;2023-06-26T11:45:11;4.75;;;3.33;;
54307;SDS011;40208;39.778;2.710;2023-06-26T11:47:57;5.13;;;3.58;;
54307;SDS011;40208;39.778;2.710;2023-06-26T11:50:42;5.30;;;3.22;;
54307;SDS011;40208;39.778;2.710;2023-06-26T11:53:27;6.03;;;3.70;;
54307;SDS011;40208;39.778;2.710;2023-06-26T11:56:12;6.72;;;4.15;;
54307;SDS011;40208;39.778;2.710;2023-06-26T11:59:06;4.55;;;3.60;;
54307;SDS011;40208;39.778;2.710;2023-06-26T12:01:52;5.90;;;4.10;;
54307;SDS011;40208;39.778;2.710;2023-06-26T12:04:38;5.10;;;3.60;;
54307;SDS011;40208;39.778;2.710;2023-06-26T12:07:25;6.63;;;4.13;;
54307;SDS011;40208;39.778;2.710;2023-06-26T12:10:11;8.77;;;3.47;;
54307;SDS011;40208;39.778;2.710;2023-06-26T12:12:56;4.85;;;3.50;;
54307;SDS011;40208;39.778;2.710;2023-06-26T12:15:43;7.13;;;3.80;;
54307;SDS011;40208;39.778;2.710;2023-06-26T12:18:34;7.78;;;3.60;;
54307;SDS011;40208;39.778;2.710;2023-06-26T12:24:26;5.05;;;3.40;;
54307;SDS011;40208;39.778;2.710;2023-06-26T12:27:12;6.30;;;3.70;;
54307;SDS011;40208;39.778;2.710;2023-06-26T12:29:58;6.47;;;3.55;;
54307;SDS011;40208;39.778;2.710;2023-06-26T12:32:46;3.90;;;3.45;;
54307;SDS011;40208;39.778;2.710;2023-06-26T12:35:32;5.72;;;3.53;;
54307;SDS011;40208;39.778;2.710;2023-06-26T12:38:18;7.50;;;3.55;;
54307;SDS011;40208;39.778;2.710;2023-06-26T12:41:04;7.18;;;3.90;;
54307;SDS011;40208;39.778;2.710;2023-06-26T12:43:49;6.32;;;3.90;;
54307;SDS011;40208;39.778;2.710;2023-06-26T12:46:40;4.38;;;3.55;;
54307;SDS011;40208;39.778;2.710;2023-06-26T12:49:35;6.10;;;3.60;;
54307;SDS011;40208;39.778;2.710;2023-06-26T12:52:23;5.63;;;3.80;;
54307;SDS011;40208;39.778;2.710;2023-06-26T12:55:08;6.90;;;3.67;;
54307;SDS011;40208;39.778;2.710;2023-06-26T12:57:53;7.18;;;3.53;;
54307;SDS011;40208;39.778;2.710;2023-06-26T13:00:38;3.97;;;3.28;;
54307;SDS011;40208;39.778;2.710;2023-06-26T13:03:25;5.63;;;3.40;;
54307;SDS011;40208;39.778;2.710;2023-06-26T13:06:10;6.60;;;3.53;;
54307;SDS011;40208;39.778;2.710;2023-06-26T13:08:57;6.18;;;3.53;;
54307;SDS011;40208;39.778;2.710;2023-06-26T13:11:42;5.53;;;3.53;;
54307;SDS011;40208;39.778;2.710;2023-06-26T13:14:27;15.38;;;4.20;;
54307;SDS011;40208;39.778;2.710;2023-06-26T13:17:12;6.43;;;3.28;;
54307;SDS011;40208;39.778;2.710;2023-06-26T13:19:57;6.65;;;3.90;;
54307;SDS011;40208;39.778;2.710;2023-06-26T13:22:42;8.77;;;4.43;;
54307;SDS011;40208;39.778;2.710;2023-06-26T13:25:27;5.38;;;4.00;;
54307;SDS011;40208;39.778;2.710;2023-06-26T13:28:11;6.82;;;3.63;;
54307;SDS011;40208;39.778;2.710;2023-06-26T13:30:56;6.72;;;3.65;;
54307;SDS011;40208;39.778;2.710;2023-06-26T13:33:41;4.45;;;3.35;;
54307;SDS011;40208;39.778;2.710;2023-06-26T13:36:26;7.00;;;3.17;;
54307;SDS011;40208;39.778;2.710;2023-06-26T13:39:11;9.75;;;3.38;;
54307;SDS011;40208;39.778;2.710;2023-06-26T13:41:55;7.20;;;3.55;;
54307;SDS011;40208;39.778;2.710;2023-06-26T13:44:41;12.93;;;3.85;;
54307;SDS011;40208;39.778;2.710;2023-06-26T13:47:25;5.35;;;3.50;;
54307;SDS011;40208;39.778;2.710;2023-06-26T13:50:10;5.30;;;3.38;;
54307;SDS011;40208;39.778;2.710;2023-06-26T13:52:55;6.07;;;3.10;;
54307;SDS011;40208;39.778;2.710;2023-06-26T13:55:40;5.63;;;3.40;;
54307;SDS011;40208;39.778;2.710;2023-06-26T13:58:25;7.22;;;3.85;;
54307;SDS011;40208;39.778;2.710;2023-06-26T14:01:11;5.53;;;3.45;;
54307;SDS011;40208;39.778;2.710;2023-06-26T14:03:57;3.63;;;3.15;;
54307;SDS011;40208;39.778;2.710;2023-06-26T14:06:41;3.97;;;3.22;;
54307;SDS011;40208;39.778;2.710;2023-06-26T14:09:26;4.05;;;3.22;;
54307;SDS011;40208;39.778;2.710;2023-06-26T14:12:11;6.47;;;3.50;;
54307;SDS011;40208;39.778;2.710;2023-06-26T14:14:56;4.50;;;3.13;;
54307;SDS011;40208;39.778;2.710;2023-06-26T14:17:40;5.25;;;3.60;;
54307;SDS011;40208;39.778;2.710;2023-06-26T14:20:25;6.43;;;3.88;;
54307;SDS011;40208;39.778;2.710;2023-06-26T14:23:12;6.95;;;3.30;;
54307;SDS011;40208;39.778;2.710;2023-06-26T14:25:56;5.50;;;3.60;;
54307;SDS011;40208;39.778;2.710;2023-06-26T14:28:41;5.00;;;3.60;;
54307;SDS011;40208;39.778;2.710;2023-06-26T14:31:26;4.72;;;3.20;;
54307;SDS011;40208;39.778;2.710;2023-06-26T14:34:11;3.90;;;3.17;;
54307;SDS011;40208;39.778;2.710;2023-06-26T14:36:56;7.32;;;3.65;;
54307;SDS011;40208;39.778;2.710;2023-06-26T14:39:41;5.82;;;3.47;;
54307;SDS011;40208;39.778;2.710;2023-06-26T14:42:26;4.20;;;3.15;;
54307;SDS011;40208;39.778;2.710;2023-06-26T14:45:10;3.88;;;3.38;;
54307;SDS011;40208;39.778;2.710;2023-06-26T14:47:55;8.20;;;3.50;;
54307;SDS011;40208;39.778;2.710;2023-06-26T14:50:40;4.78;;;3.47;;
54307;SDS011;40208;39.778;2.710;2023-06-26T14:53:25;6.22;;;3.55;;
54307;SDS011;40208;39.778;2.710;2023-06-26T14:56:09;5.85;;;3.30;;
54307;SDS011;40208;39.778;2.710;2023-06-26T14:58:55;5.25;;;3.45;;
54307;SDS011;40208;39.778;2.710;2023-06-26T15:01:40;4.97;;;3.38;;
54307;SDS011;40208;39.778;2.710;2023-06-26T15:04:24;4.05;;;3.20;;
54307;SDS011;40208;39.778;2.710;2023-06-26T15:07:09;4.55;;;3.10;;
54307;SDS011;40208;39.778;2.710;2023-06-26T15:09:54;5.43;;;3.78;;
54307;SDS011;40208;39.778;2.710;2023-06-26T15:12:39;6.28;;;3.40;;
54307;SDS011;40208;39.778;2.710;2023-06-26T15:15:24;5.97;;;3.13;;
54307;SDS011;40208;39.778;2.710;2023-06-26T15:18:09;6.85;;;3.50;;
54307;SDS011;40208;39.778;2.710;2023-06-26T15:20:54;6.18;;;3.70;;
54307;SDS011;40208;39.778;2.710;2023-06-26T15:23:39;7.88;;;3.80;;
54307;SDS011;40208;39.778;2.710;2023-06-26T15:26:24;4.60;;;3.13;;
54307;SDS011;40208;39.778;2.710;2023-06-26T15:29:08;5.75;;;3.67;;
54307;SDS011;40208;39.778;2.710;2023-06-26T15:31:53;5.78;;;3.15;;
54307;SDS011;40208;39.778;2.710;2023-06-26T15:34:38;5.93;;;3.30;;
54307;SDS011;40208;39.778;2.710;2023-06-26T15:37:23;5.15;;;3.90;;
54307;SDS011;40208;39.778;2.710;2023-06-26T15:40:08;6.68;;;3.33;;
54307;SDS011;40208;39.778;2.710;2023-06-26T15:42:53;7.05;;;3.20;;
54307;SDS011;40208;39.778;2.710;2023-06-26T15:45:38;6.65;;;3.67;;
54307;SDS011;40208;39.778;2.710;2023-06-26T15:48:22;7.70;;;3.20;;
54307;SDS011;40208;39.778;2.710;2023-06-26T15:51:10;4.90;;;3.17;;
54307;SDS011;40208;39.778;2.710;2023-06-26T15:53:57;5.88;;;3.60;;
54307;SDS011;40208;39.778;2.710;2023-06-26T15:56:42;8.13;;;3.65;;
54307;SDS011;40208;39.778;2.710;2023-06-26T15:59:27;3.85;;;3.10;;
54307;SDS011;40208;39.778;2.710;2023-06-26T16:02:12;7.50;;;3.45;;
54307;SDS011;40208;39.778;2.710;2023-06-26T16:04:57;6.53;;;3.30;;
54307;SDS011;40208;39.778;2.710;2023-06-26T16:07:42;5.95;;;2.88;;
54307;SDS011;40208;39.778;2.710;2023-06-26T16:10:26;5.03;;;3.50;;
54307;SDS011;40208;39.778;2.710;2023-06-26T16:13:13;6.38;;;3.30;;
54307;SDS011;40208;39.778;2.710;2023-06-26T16:15:58;6.80;;;3.58;;
54307;SDS011;40208;39.778;2.710;2023-06-26T16:18:43;6.70;;;4.03;;
54307;SDS011;40208;39.778;2.710;2023-06-26T16:21:28;8.38;;;3.30;;
54307;SDS011;40208;39.778;2.710;2023-06-26T16:24:13;4.75;;;2.97;;
54307;SDS011;40208;39.778;2.710;2023-06-26T16:26:58;5.22;;;3.13;;
54307;SDS011;40208;39.778;2.710;2023-06-26T16:29:43;5.82;;;3.03;;
54307;SDS011;40208;39.778;2.710;2023-06-26T16:32:28;7.55;;;3.40;;
54307;SDS011;40208;39.778;2.710;2023-06-26T16:35:13;5.78;;;3.05;;
54307;SDS011;40208;39.778;2.710;2023-06-26T16:37:58;7.25;;;3.28;;
54307;SDS011;40208;39.778;2.710;2023-06-26T16:40:42;3.90;;;2.75;;
54307;SDS011;40208;39.778;2.710;2023-06-26T16:43:27;4.40;;;2.85;;
54307;SDS011;40208;39.778;2.710;2023-06-26T16:46:12;5.32;;;3.20;;
54307;SDS011;40208;39.778;2.710;2023-06-26T16:48:57;9.60;;;3.42;;
54307;SDS011;40208;39.778;2.710;2023-06-26T16:51:41;5.68;;;3.50;;